Time;durP1;ratioP1;P1;durP2;ratioP2;P2;SDS_P1;SDS_P2;PMS_P1;PMS_P2;Temp;Humidity;BMP_temperature;BMP_pressure;BME280_temperature;BME280_humidity;BME280_pressure;Samples;Min_cycle;Max_cycle;Signal;HPM_P1;HPM_P2
2021/05/12 00:00:48;;;;;;;27.02;22.13;;;;;;;-145.50;100.00;65435.88;4996375;28;20050;-73
2021/05/12 00:03:36;;;;;;;32.47;24.05;;;;;;;-145.50;100.00;65435.88;4994896;28;20146;-73
2021/05/12 00:06:23;;;;;;;33.73;22.80;;;;;;;-145.50;100.00;65435.88;4998005;28;20461;-73
2021/05/12 00:09:10;;;;;;;32.25;23.52;;;;;;;-145.50;100.00;65435.88;4989033;28;20138;-73
2021/05/12 00:11:57;;;;;;;27.77;21.10;;;;;;;-145.50;100.00;65435.88;4997533;28;20483;-72
2021/05/12 00:14:45;;;;;;;27.77;22.73;;;;;;;-145.50;100.00;65435.88;4988045;28;20061;-72
2021/05/12 00:17:34;;;;;;;30.92;24.42;;;;;;;-145.50;100.00;65435.88;5002663;28;20085;-73
2021/05/12 00:20:26;;;;;;;30.55;23.80;;;;;;;-145.50;100.00;65435.88;4994900;28;20086;-73
2021/05/12 00:23:20;;;;;;;32.72;24.77;;;;;;;-145.50;100.00;65435.88;5002408;28;20473;-72
2021/05/12 00:26:07;;;;;;;30.42;25.40;;;;;;;-145.50;100.00;65435.88;4986078;28;20050;-72
2021/05/12 00:28:54;;;;;;;33.03;25.40;;;;;;;-145.50;100.00;65435.88;4990955;28;20531;-73
2021/05/12 00:31:42;;;;;;;25.98;22.83;;;;;;;-145.50;100.00;65435.88;4993150;28;20156;-73
2021/05/12 00:34:29;;;;;;;33.67;25.30;;;;;;;-145.50;100.00;65435.88;4990522;28;20136;-73
2021/05/12 00:37:16;;;;;;;33.75;24.25;;;;;;;-145.50;100.00;65435.88;4994546;28;20077;-72
2021/05/12 00:40:04;;;;;;;32.15;24.50;;;;;;;-145.50;100.00;65435.88;4992376;28;20054;-73
2021/05/12 00:42:52;;;;;;;29.77;23.95;;;;;;;-145.50;100.00;65435.88;4993317;28;20104;-73
2021/05/12 00:45:40;;;;;;;32.00;24.07;;;;;;;-145.50;100.00;65435.88;5000738;28;20453;-73
2021/05/12 00:48:27;;;;;;;32.22;24.20;;;;;;;-145.50;100.00;65435.88;5007891;28;20399;-72
2021/05/12 00:51:14;;;;;;;29.52;22.95;;;;;;;-145.50;100.00;65435.88;4996928;28;20103;-72
2021/05/12 00:54:01;;;;;;;32.05;24.05;;;;;;;-145.50;100.00;65435.88;4986099;28;20459;-72
2021/05/12 00:56:49;;;;;;;31.50;23.67;;;;;;;-145.50;100.00;65435.88;4998399;28;20153;-73
2021/05/12 00:59:37;;;;;;;29.63;22.45;;;;;;;-145.50;100.00;65435.88;4994896;28;20395;-71
2021/05/12 01:02:26;;;;;;;30.60;24.17;;;;;;;-145.50;100.00;65435.88;5004678;28;20080;-72
2021/05/12 01:05:18;;;;;;;28.98;21.83;;;;;;;-145.50;100.00;65435.88;4991870;28;20078;-72
2021/05/12 01:08:05;;;;;;;29.58;22.92;;;;;;;-145.50;100.00;65435.88;4999013;28;20588;-72
2021/05/12 01:10:53;;;;;;;32.67;22.33;;;;;;;-145.50;100.00;65435.88;4989525;28;20141;-71
2021/05/12 01:13:40;;;;;;;33.45;22.48;;;;;;;-145.50;100.00;65435.88;5000057;28;20050;-71
2021/05/12 01:16:28;;;;;;;32.13;21.67;;;;;;;-145.50;100.00;65435.88;4992824;28;20123;-71
2021/05/12 01:19:15;;;;;;;28.13;21.17;;;;;;;-145.50;100.00;65435.88;4996979;28;20058;-72
2021/05/12 01:22:02;;;;;;;29.95;20.38;;;;;;;-145.50;100.00;65435.88;4996130;28;20551;-72
2021/05/12 01:24:49;;;;;;;30.05;19.80;;;;;;;-145.50;100.00;65435.88;4991428;28;20158;-72
2021/05/12 01:27:38;;;;;;;27.83;18.45;;;;;;;-145.50;100.00;65435.88;4999417;28;20050;-71
2021/05/12 01:30:26;;;;;;;30.55;17.92;;;;;;;-145.50;100.00;65435.88;4995658;28;20077;-71
2021/05/12 01:33:13;;;;;;;28.30;18.25;;;;;;;-145.50;100.00;65435.88;5002898;28;20054;-71
2021/05/12 01:36:00;;;;;;;24.55;16.80;;;;;;;-145.50;100.00;65435.88;4994895;28;20073;-71
2021/05/12 01:38:49;;;;;;;24.85;16.23;;;;;;;-145.50;100.00;65435.88;4990944;28;20522;-71
2021/05/12 01:41:38;;;;;;;24.52;18.27;;;;;;;-145.50;100.00;65435.88;4995418;28;20071;-71
2021/05/12 01:44:26;;;;;;;22.80;15.40;;;;;;;-145.50;100.00;65435.88;4989743;28;20405;-72
2021/05/12 01:47:13;;;;;;;;;;;;;;;-145.50;100.00;65435.88;4998958;28;20089;-72
2021/05/12 01:50:03;;;;;;;24.48;16.92;;;;;;;-145.50;100.00;65435.88;4993932;28;20483;-72
2021/05/12 01:52:50;;;;;;;24.60;17.63;;;;;;;-145.50;100.00;65435.88;4991875;28;20062;-71
2021/05/12 01:55:38;;;;;;;29.80;17.88;;;;;;;-145.50;100.00;65435.88;4999687;28;20050;-71
2021/05/12 01:58:25;;;;;;;27.27;18.00;;;;;;;-145.50;100.00;65435.88;4993892;28;20525;-71
2021/05/12 02:01:13;;;;;;;27.05;18.33;;;;;;;-145.50;100.00;65435.88;4999738;28;20081;-72
2021/05/12 02:04:01;;;;;;;31.25;19.75;;;;;;;-145.50;100.00;65435.88;4988303;28;20144;-72
2021/05/12 02:06:48;;;;;;;30.35;19.15;;;;;;;-145.50;100.00;65435.88;4995897;28;20092;-71
2021/05/12 02:09:40;;;;;;;29.55;18.60;;;;;;;-145.50;100.00;65435.88;4985153;28;20078;-71
2021/05/12 02:12:27;;;;;;;28.88;17.88;;;;;;;-145.50;100.00;65435.88;4997332;28;20475;-71
2021/05/12 02:15:14;;;;;;;31.40;19.73;;;;;;;-145.50;100.00;65435.88;4991171;28;20765;-71
2021/05/12 02:18:02;;;;;;;27.10;17.30;;;;;;;-145.50;100.00;65435.88;4999053;28;21059;-71
2021/05/12 02:20:50;;;;;;;26.70;17.13;;;;;;;-145.50;100.00;65435.88;4988796;28;20208;-71
2021/05/12 02:23:39;;;;;;;28.13;17.10;;;;;;;-145.50;100.00;65435.88;5002331;28;20101;-72
2021/05/12 02:26:26;;;;;;;26.20;16.65;;;;;;;-145.50;100.00;65435.88;4998528;28;20085;-71
2021/05/12 02:29:13;;;;;;;29.15;16.90;;;;;;;-145.50;100.00;65435.88;5002672;28;20054;-71
2021/05/12 02:32:00;;;;;;;30.35;16.55;;;;;;;-145.50;100.00;65435.88;4994881;28;20061;-72
2021/05/12 02:34:47;;;;;;;28.48;15.80;;;;;;;-145.50;100.00;65435.88;4994497;28;20093;-72
2021/05/12 02:37:34;;;;;;;29.13;18.80;;;;;;;-145.50;100.00;65435.88;5001306;28;20603;-71
2021/05/12 02:40:22;;;;;;;26.38;16.65;;;;;;;-145.50;100.00;65435.88;5000822;28;20081;-71
2021/05/12 02:43:10;;;;;;;30.65;18.65;;;;;;;-145.50;100.00;65435.88;4991902;28;20083;-72
2021/05/12 02:45:58;;;;;;;22.90;16.80;;;;;;;-145.50;100.00;65435.88;5000114;28;20238;-72
2021/05/12 02:48:45;;;;;;;26.45;16.73;;;;;;;-145.50;100.00;65435.88;4991296;28;20482;-72
2021/05/12 02:51:32;;;;;;;24.60;16.60;;;;;;;-145.50;100.00;65435.88;5002665;28;20299;-72
2021/05/12 02:54:19;;;;;;;31.48;18.67;;;;;;;-145.50;100.00;65435.88;5000744;28;20537;-71
2021/05/12 02:57:06;;;;;;;27.65;18.48;;;;;;;-145.50;100.00;65435.88;5004026;28;20062;-71
2021/05/12 02:59:53;;;;;;;32.72;19.35;;;;;;;-145.50;100.00;65435.88;4989877;28;20104;-72
2021/05/12 03:02:40;;;;;;;29.05;19.13;;;;;;;-145.50;100.00;65435.88;4998497;28;20478;-71
2021/05/12 03:05:30;;;;;;;33.78;20.85;;;;;;;-145.50;100.00;65435.88;4995695;28;20089;-72
2021/05/12 03:08:17;;;;;;;28.13;19.98;;;;;;;-145.50;100.00;65435.88;5004833;28;20069;-71
2021/05/12 03:11:04;;;;;;;31.67;20.13;;;;;;;-145.50;100.00;65435.88;4998419;28;20101;-72
2021/05/12 03:13:51;;;;;;;31.52;21.90;;;;;;;-145.50;100.00;65435.88;4993375;28;20078;-71
2021/05/12 03:16:38;;;;;;;32.28;20.70;;;;;;;-145.50;100.00;65435.88;4993664;28;20053;-71
2021/05/12 03:19:26;;;;;;;36.45;21.30;;;;;;;-145.50;100.00;65435.88;4998689;28;20137;-72
2021/05/12 03:22:14;;;;;;;32.38;22.00;;;;;;;-145.50;100.00;65435.88;4991270;28;20058;-72
2021/05/12 03:25:01;;;;;;;34.00;21.52;;;;;;;-145.50;100.00;65435.88;5000889;28;20104;-72
2021/05/12 03:27:49;;;;;;;32.55;21.42;;;;;;;-145.50;100.00;65435.88;4990596;28;20050;-72
2021/05/12 03:30:38;;;;;;;31.55;21.83;;;;;;;-145.50;100.00;65435.88;4998432;28;20081;-72
2021/05/12 03:33:27;;;;;;;33.55;22.23;;;;;;;-145.50;100.00;65435.88;4992319;28;20168;-72
2021/05/12 03:36:14;;;;;;;39.08;21.80;;;;;;;-145.50;100.00;65435.88;5004079;28;20085;-72
2021/05/12 03:39:02;;;;;;;35.38;22.27;;;;;;;-145.50;100.00;65435.88;5003185;28;20058;-72
2021/05/12 03:41:49;;;;;;;;;;;;;;;-145.50;100.00;65435.88;4997201;28;20105;-72
2021/05/12 03:44:37;;;;;;;34.65;21.92;;;;;;;-145.50;100.00;65435.88;4991639;28;19977;-72
2021/05/12 03:47:24;;;;;;;37.50;21.85;;;;;;;-145.50;100.00;65435.88;5002827;28;20057;-71
2021/05/12 03:50:11;;;;;;;34.40;22.13;;;;;;;-145.50;100.00;65435.88;4996328;28;20088;-72
2021/05/12 03:52:59;;;;;;;31.10;21.58;;;;;;;-145.50;100.00;65435.88;5002673;28;20077;-71
2021/05/12 03:55:47;;;;;;;43.75;22.88;;;;;;;-145.50;100.00;65435.88;5000862;28;20153;-72
2021/05/12 03:58:34;;;;;;;33.22;21.52;;;;;;;-145.50;100.00;65435.88;4994897;28;20738;-72
2021/05/12 04:01:21;;;;;;;38.55;23.08;;;;;;;-145.50;100.00;65435.88;4999031;28;20058;-72
2021/05/12 04:04:10;;;;;;;31.85;21.85;;;;;;;-145.50;100.00;65435.88;4998469;28;20049;-72
2021/05/12 04:06:57;;;;;;;37.67;21.63;;;;;;;-145.50;100.00;65435.88;4998185;28;20054;-72
2021/05/12 04:09:44;;;;;;;34.88;21.33;;;;;;;-145.50;100.00;65435.88;4992497;28;20111;-71
2021/05/12 04:12:31;;;;;;;36.33;21.30;;;;;;;-145.50;100.00;65435.88;4998269;28;20131;-71
2021/05/12 04:15:18;;;;;;;32.42;20.10;;;;;;;-145.50;100.00;65435.88;4995038;28;20042;-71
2021/05/12 04:18:06;;;;;;;31.35;19.67;;;;;;;-145.50;100.00;65435.88;5003015;28;20489;-72
2021/05/12 04:20:53;;;;;;;32.70;19.85;;;;;;;-145.50;100.00;65435.88;4990858;28;20458;-72
2021/05/12 04:23:40;;;;;;;30.05;20.35;;;;;;;-145.50;100.00;65435.88;4991725;28;20054;-71
2021/05/12 04:26:27;;;;;;;34.30;20.48;;;;;;;-145.50;100.00;65435.88;4995287;28;20089;-72
2021/05/12 04:29:15;;;;;;;32.97;19.73;;;;;;;-145.50;100.00;65435.88;4999900;28;20499;-71
2021/05/12 04:32:03;;;;;;;33.37;20.17;;;;;;;-145.50;100.00;65435.88;4994201;28;20049;-71
2021/05/12 04:34:50;;;;;;;31.23;18.40;;;;;;;-145.50;100.00;65435.88;5001146;28;20058;-71
2021/05/12 04:37:37;;;;;;;29.38;18.33;;;;;;;-145.50;100.00;65435.88;4992567;28;20053;-71
2021/05/12 04:40:25;;;;;;;32.00;18.92;;;;;;;-145.50;100.00;65435.88;4999052;28;20083;-72
2021/05/12 04:43:12;;;;;;;35.50;19.93;;;;;;;-145.50;100.00;65435.88;4996616;28;20141;-72
2021/05/12 04:45:59;;;;;;;31.50;18.90;;;;;;;-145.50;100.00;65435.88;5000867;28;21482;-71
2021/05/12 04:48:50;;;;;;;32.70;18.75;;;;;;;-145.50;100.00;65435.88;4995046;28;20076;-71
2021/05/12 04:51:37;;;;;;;31.58;18.60;;;;;;;-145.50;100.00;65435.88;4997380;28;20054;-71
2021/05/12 04:54:27;;;;;;;26.75;17.77;;;;;;;-145.50;100.00;65435.88;4992334;28;20085;-72
2021/05/12 04:57:15;;;;;;;28.35;18.70;;;;;;;-145.50;100.00;65435.88;4999823;28;20455;-71
2021/05/12 05:00:03;;;;;;;30.27;19.02;;;;;;;-145.50;100.00;65435.88;4996459;28;20108;-71
2021/05/12 05:02:50;;;;;;;30.10;18.67;;;;;;;-145.50;100.00;65435.88;4993650;28;20076;-72
2021/05/12 05:05:37;;;;;;;31.10;19.75;;;;;;;-145.50;100.00;65435.88;4993848;28;20204;-72
2021/05/12 05:08:25;;;;;;;34.60;19.52;;;;;;;-145.50;100.00;65435.88;4995900;28;20084;-71
2021/05/12 05:11:12;;;;;;;33.08;19.25;;;;;;;-145.50;100.00;65435.88;4999167;28;20053;-71
2021/05/12 05:14:00;;;;;;;29.67;19.70;;;;;;;-145.50;100.00;65435.88;4997096;28;20065;-71
2021/05/12 05:16:47;;;;;;;29.33;18.98;;;;;;;-145.50;100.00;65435.88;5010372;28;20120;-71
2021/05/12 05:19:21;;;;;;;30.48;19.40;;;;;;;15.64;68.75;100934.72;4997596;28;20124;-72
2021/05/12 05:22:11;;;;;;;30.98;19.00;;;;;;;-145.50;100.00;65435.88;4986444;28;20045;-71
2021/05/12 05:24:59;;;;;;;29.42;19.50;;;;;;;-145.50;100.00;65435.88;4997135;28;20131;-71
2021/05/12 05:27:46;;;;;;;34.67;19.17;;;;;;;-145.50;100.00;65435.88;4997094;28;20418;-72
2021/05/12 05:30:33;;;;;;;30.38;19.77;;;;;;;-145.50;100.00;65435.88;5001798;28;20061;-72
2021/05/12 05:33:21;;;;;;;29.80;19.30;;;;;;;-145.50;100.00;65435.88;4993897;28;20057;-72
2021/05/12 05:36:08;;;;;;;30.25;20.80;;;;;;;-145.50;100.00;65435.88;4998647;28;20124;-72
2021/05/12 05:38:55;;;;;;;32.30;19.75;;;;;;;-145.50;100.00;65435.88;5000833;28;20089;-72
2021/05/12 05:41:42;;;;;;;37.22;22.30;;;;;;;-145.50;100.00;65435.88;4992909;28;20413;-72
2021/05/12 05:44:29;;;;;;;30.70;21.13;;;;;;;-145.50;100.00;65435.88;5000545;28;20080;-72
2021/05/12 05:47:17;;;;;;;32.67;20.75;;;;;;;-145.50;100.00;65435.88;4991634;28;20140;-73
2021/05/12 05:50:07;;;;;;;34.83;19.98;;;;;;;-145.50;100.00;65435.88;4998245;28;20116;-72
2021/05/12 05:52:54;;;;;;;32.10;20.73;;;;;;;-145.50;100.00;65435.88;4992074;28;20105;-72
2021/05/12 05:55:42;;;;;;;29.13;19.52;;;;;;;-145.50;100.00;65435.88;4997731;28;20091;-73
2021/05/12 05:58:30;;;;;;;31.40;20.48;;;;;;;-145.50;100.00;65435.88;4996429;28;20112;-73
2021/05/12 06:01:17;;;;;;;29.15;19.42;;;;;;;-145.50;100.00;65435.88;4998016;28;20630;-72
2021/05/12 06:04:04;;;;;;;36.05;22.95;;;;;;;-145.50;100.00;65435.88;4988594;28;20120;-73
2021/05/12 06:06:51;;;;;;;32.17;20.05;;;;;;;-145.50;100.00;65435.88;4995757;28;20513;-72
2021/05/12 06:09:40;;;;;;;35.08;21.27;;;;;;;-145.50;100.00;65435.88;4994360;28;20084;-72
2021/05/12 06:12:27;;;;;;;32.42;21.30;;;;;;;-145.50;100.00;65435.88;4997459;28;20108;-73
2021/05/12 06:15:19;;;;;;;32.85;21.13;;;;;;;-145.50;100.00;65435.88;4989947;28;20047;-73
2021/05/12 06:18:10;;;;;;;30.63;20.88;;;;;;;-145.50;100.00;65435.88;4995299;28;20069;-73
2021/05/12 06:20:58;;;;;;;30.38;21.77;;;;;;;-145.50;100.00;65435.88;4997952;28;20524;-73
2021/05/12 06:23:45;;;;;;;35.90;23.08;;;;;;;-145.50;100.00;65435.88;4999068;28;20418;-73
2021/05/12 06:26:32;;;;;;;39.92;19.90;;;;;;;-145.50;100.00;65435.88;4982883;28;20109;-73
2021/05/12 06:28:58;;;;;;;33.03;20.50;;;;;;;15.64;68.75;100934.72;4998065;28;20140;-73
2021/05/12 06:31:45;;;;;;;37.35;21.55;;;;;;;-145.50;100.00;65435.88;4985809;28;20116;-73
2021/05/12 06:34:36;;;;;;;27.80;17.10;;;;;;;-145.50;100.00;65435.88;5003254;28;20096;-73
2021/05/12 06:37:23;;;;;;;27.40;18.73;;;;;;;-145.50;100.00;65435.88;4989069;28;20081;-74
2021/05/12 06:40:10;;;;;;;31.17;19.23;;;;;;;-145.50;100.00;65435.88;5002653;28;20730;-73
2021/05/12 06:43:00;;;;;;;28.20;15.98;;;;;;;-145.50;100.00;65435.88;4985837;28;20116;-73
2021/05/12 06:45:47;;;;;;;26.15;17.50;;;;;;;-145.50;100.00;65435.88;4998746;28;20128;-73
2021/05/12 06:48:35;;;;;;;23.40;15.32;;;;;;;-145.50;100.00;65435.88;4992806;28;20053;-73
2021/05/12 06:51:22;;;;;;;25.05;16.50;;;;;;;-145.50;100.00;65435.88;4999907;28;20189;-73
2021/05/12 06:54:10;;;;;;;25.55;14.02;;;;;;;-145.50;100.00;65435.88;4993458;28;20081;-73
2021/05/12 06:56:57;;;;;;;25.52;14.95;;;;;;;-145.50;100.00;65435.88;4987851;28;20136;-73
2021/05/12 06:59:44;;;;;;;22.15;15.05;;;;;;;-145.50;100.00;65435.88;4988354;28;20102;-73
2021/05/12 07:02:31;;;;;;;23.70;13.63;;;;;;;-145.50;100.00;65435.88;4999295;28;20077;-73
2021/05/12 07:05:20;;;;;;;22.65;13.00;;;;;;;-145.50;100.00;65435.88;4997700;28;20050;-73
2021/05/12 07:08:07;;;;;;;29.25;13.75;;;;;;;-145.50;100.00;65435.88;5002459;28;20050;-73
2021/05/12 07:10:55;;;;;;;30.77;13.77;;;;;;;-145.50;100.00;65435.88;5012535;28;20081;-73
2021/05/12 07:13:42;;;;;;;21.70;11.60;;;;;;;-145.50;100.00;65435.88;4997590;28;20058;-73
2021/05/12 07:16:29;;;;;;;27.42;11.23;;;;;;;-145.50;100.00;65435.88;4987421;28;20085;-73
2021/05/12 07:19:18;;;;;;;18.33;9.43;;;;;;;-145.50;100.00;65435.88;5004890;28;20253;-73
2021/05/12 07:22:07;;;;;;;58.50;15.77;;;;;;;-145.50;100.00;65435.88;4987061;28;20058;-73
2021/05/12 07:24:54;;;;;;;32.40;12.13;;;;;;;-145.50;100.00;65435.88;4993550;28;20487;-73
2021/05/12 07:27:41;;;;;;;56.58;14.95;;;;;;;-145.50;100.00;65435.88;4993333;28;20490;-74
2021/05/12 07:30:29;;;;;;;14.70;7.80;;;;;;;-145.50;100.00;65435.88;4998660;28;20494;-74
2021/05/12 07:33:16;;;;;;;21.05;6.97;;;;;;;-145.50;100.00;65435.88;4999000;28;20060;-73
2021/05/12 07:36:07;;;;;;;15.55;6.70;;;;;;;-145.50;100.00;65435.88;5003119;28;20053;-73
2021/05/12 07:38:54;;;;;;;18.90;7.57;;;;;;;-145.50;100.00;65435.88;4998732;28;20057;-73
2021/05/12 07:41:43;;;;;;;18.50;8.60;;;;;;;-145.50;100.00;65435.88;4995907;28;20961;-73
2021/05/12 07:44:30;;;;;;;13.13;7.05;;;;;;;-145.50;100.00;65435.88;5002591;28;20108;-74
2021/05/12 07:47:17;;;;;;;16.65;7.68;;;;;;;-145.50;100.00;65435.88;5001601;28;20834;-74
2021/05/12 07:50:07;;;;;;;18.33;8.00;;;;;;;-145.50;100.00;65435.88;4998127;28;20600;-73
2021/05/12 07:52:54;;;;;;;20.52;7.05;;;;;;;-145.50;100.00;65435.88;4990569;28;20069;-73
2021/05/12 07:55:41;;;;;;;10.57;5.88;;;;;;;-145.50;100.00;65435.88;4992263;28;20096;-73
2021/05/12 07:58:28;;;;;;;12.80;6.80;;;;;;;-145.50;100.00;65435.88;4996864;28;20081;-73
2021/05/12 08:01:48;;;;;;;17.95;7.35;;;;;;;-145.50;100.00;65435.88;5001363;28;20054;-73
2021/05/12 08:04:35;;;;;;;17.48;7.93;;;;;;;-145.50;100.00;65435.88;5005253;28;20556;-73
2021/05/12 08:07:23;;;;;;;13.23;6.57;;;;;;;-145.50;100.00;65435.88;4998847;28;20053;-74
2021/05/12 08:10:11;;;;;;;14.60;6.40;;;;;;;-145.50;100.00;65435.88;5001422;28;20057;-73
2021/05/12 08:12:58;;;;;;;16.33;7.43;;;;;;;-145.50;100.00;65435.88;4996483;28;20046;-73
2021/05/12 08:15:45;;;;;;;11.43;6.63;;;;;;;-145.50;100.00;65435.88;4988583;28;20312;-74
2021/05/12 08:18:32;;;;;;;10.82;6.28;;;;;;;-145.50;100.00;65435.88;5004184;28;20066;-74
2021/05/12 08:21:19;;;;;;;14.52;7.32;;;;;;;-145.50;100.00;65435.88;4992387;28;20064;-74
2021/05/12 08:24:07;;;;;;;12.88;6.30;;;;;;;-145.50;100.00;65435.88;4998787;28;20061;-73
2021/05/12 08:26:54;;;;;;;13.23;5.50;;;;;;;-145.50;100.00;65435.88;4994994;28;20116;-74
2021/05/12 08:29:43;;;;;;;13.20;5.60;;;;;;;-145.50;100.00;65435.88;4997933;28;20053;-74
2021/05/12 08:32:30;;;;;;;12.82;6.10;;;;;;;-145.50;100.00;65435.88;4990868;28;20081;-74
2021/05/12 08:35:18;;;;;;;13.05;5.65;;;;;;;-145.50;100.00;65435.88;5000982;28;20080;-73
2021/05/12 08:38:05;;;;;;;16.23;5.85;;;;;;;-145.50;100.00;65435.88;4993631;28;20085;-73
2021/05/12 08:40:53;;;;;;;15.70;6.68;;;;;;;-145.50;100.00;65435.88;5003642;28;20045;-73
2021/05/12 08:43:41;;;;;;;14.38;5.95;;;;;;;-145.50;100.00;65435.88;4996924;28;20141;-73
2021/05/12 08:46:38;;;;;;;14.32;5.65;;;;;;;-145.50;100.00;65435.88;4997506;28;20085;-73
2021/05/12 08:49:26;;;;;;;12.38;4.18;;;;;;;-145.50;100.00;65435.88;4990755;28;20050;-74
2021/05/12 08:52:13;;;;;;;14.75;3.78;;;;;;;-145.50;100.00;65435.88;4995816;28;20078;-74
2021/05/12 08:55:01;;;;;;;14.90;4.40;;;;;;;-145.50;100.00;65435.88;4988914;28;20094;-73
2021/05/12 08:57:49;;;;;;;17.02;4.07;;;;;;;-145.50;100.00;65435.88;4999895;28;20061;-73
2021/05/12 09:00:36;;;;;;;14.23;4.47;;;;;;;-145.50;100.00;65435.88;4994689;28;20494;-73
2021/05/12 09:03:26;;;;;;;13.95;4.43;;;;;;;-145.50;100.00;65435.88;4994155;28;20655;-73
2021/05/12 09:06:16;;;;;;;15.10;5.35;;;;;;;-145.50;100.00;65435.88;4991853;28;20050;-73
2021/05/12 09:09:07;;;;;;;16.13;5.00;;;;;;;-145.50;100.00;65435.88;5004287;28;20062;-73
2021/05/12 09:11:57;;;;;;;17.27;4.68;;;;;;;-145.50;100.00;65435.88;4987213;28;20057;-73
2021/05/12 09:14:53;;;;;;;14.80;4.10;;;;;;;-145.50;100.00;65435.88;4998127;28;20053;-73
2021/05/12 09:17:53;;;;;;;11.32;3.97;;;;;;;-145.50;100.00;65435.88;4989991;28;20058;-74
2021/05/12 09:20:42;;;;;;;8.02;3.63;;;;;;;-145.50;100.00;65435.88;4994596;28;20061;-74
2021/05/12 09:23:41;;;;;;;9.35;3.25;;;;;;;-145.50;100.00;65435.88;4995819;28;20612;-74
2021/05/12 09:26:33;;;;;;;12.02;3.25;;;;;;;-145.50;100.00;65435.88;4997838;28;20085;-73
2021/05/12 09:29:27;;;;;;;18.77;4.20;;;;;;;-145.50;100.00;65435.88;4995480;28;20054;-74
2021/05/12 09:32:43;;;;;;;7.80;3.03;;;;;;;-145.50;100.00;65435.88;4992974;28;20069;-73
2021/05/12 09:35:31;;;;;;;13.75;3.28;;;;;;;-145.50;100.00;65435.88;5001042;28;20053;-73
2021/05/12 09:38:21;;;;;;;12.77;3.10;;;;;;;-145.50;100.00;65435.88;5000569;28;20050;-73
2021/05/12 09:41:32;;;;;;;9.23;3.15;;;;;;;-145.50;100.00;65435.88;4993754;28;20100;-73
2021/05/12 09:44:27;;;;;;;15.38;3.25;;;;;;;-145.50;100.00;65435.88;4998083;28;20081;-73
2021/05/12 09:47:29;;;;;;;11.35;2.83;;;;;;;15.64;68.75;100934.72;4995683;28;20057;-73
2021/05/12 09:50:24;;;;;;;12.48;2.70;;;;;;;-145.50;100.00;65435.88;4986793;28;20054;-73
2021/05/12 09:53:15;;;;;;;14.38;3.20;;;;;;;-145.50;100.00;65435.88;5000779;28;20054;-73
2021/05/12 09:56:09;;;;;;;9.75;2.83;;;;;;;-145.50;100.00;65435.88;4986969;28;20050;-73
2021/05/12 09:58:56;;;;;;;14.43;3.30;;;;;;;-145.50;100.00;65435.88;4997620;28;20542;-73
2021/05/12 10:01:58;;;;;;;14.73;2.70;;;;;;;-145.50;100.00;65435.88;4990696;28;20710;-73
2021/05/12 10:04:51;;;;;;;14.35;2.80;;;;;;;-145.50;100.00;65435.88;5002601;28;20521;-73
2021/05/12 10:07:49;;;;;;;9.98;2.33;;;;;;;-145.50;100.00;65435.88;4994143;28;20468;-73
2021/05/12 10:10:45;;;;;;;10.68;2.47;;;;;;;15.64;68.75;100934.72;4998585;28;20092;-73
2021/05/12 10:13:37;;;;;;;15.07;2.70;;;;;;;-145.50;100.00;65435.88;4992348;28;20058;-73
2021/05/12 10:16:28;;;;;;;12.40;2.35;;;;;;;-145.50;100.00;65435.88;4997779;28;20113;-73
2021/05/12 10:19:16;;;;;;;9.27;2.35;;;;;;;-145.50;100.00;65435.88;4997642;28;20046;-73
2021/05/12 10:22:04;;;;;;;10.60;2.40;;;;;;;-145.50;100.00;65435.88;4999930;28;20058;-74
2021/05/12 10:24:52;;;;;;;;;;;;;;;-145.50;100.00;65435.88;4992014;28;20204;-73
2021/05/12 10:27:47;;;;;;;8.13;2.33;;;;;;;-145.50;100.00;65435.88;4997090;28;19926;-73
2021/05/12 10:30:38;;;;;;;10.00;2.20;;;;;;;-145.50;100.00;65435.88;4984935;28;20461;-74
2021/05/12 10:33:48;;;;;;;10.43;2.17;;;;;;;-145.50;100.00;65435.88;5000219;28;20529;-74
2021/05/12 10:36:40;;;;;;;5.85;1.92;;;;;;;-145.50;100.00;65435.88;4991468;28;20046;-74
2021/05/12 10:39:27;;;;;;;10.52;2.60;;;;;;;-145.50;100.00;65435.88;5000947;28;20111;-73
2021/05/12 10:42:09;;;;;;;10.00;2.40;;;;;;;-145.50;100.00;65435.88;4988653;28;20081;-73
2021/05/12 10:44:45;;;;;;;13.50;2.22;;;;;;;15.64;68.75;100934.72;4991718;28;20050;-73
2021/05/12 10:47:39;;;;;;;6.65;1.77;;;;;;;-145.50;100.00;65435.88;4994132;28;20498;-73
2021/05/12 10:50:46;;;;;;;7.22;1.90;;;;;;;-145.50;100.00;65435.88;4995468;28;20069;-73
2021/05/12 10:53:44;;;;;;;6.60;1.73;;;;;;;-145.50;100.00;65435.88;4994976;28;20057;-74
2021/05/12 10:56:39;;;;;;;9.77;1.88;;;;;;;-145.50;100.00;65435.88;4999454;28;20548;-74
2021/05/12 10:59:27;;;;;;;9.68;2.53;;;;;;;-145.50;100.00;65435.88;5001343;28;20058;-73
2021/05/12 11:02:14;;;;;;;;;;;;;;;-145.50;100.00;65435.88;5005315;28;20077;-75
2021/05/12 11:05:19;;;;;;;12.70;2.38;;;;;;;-145.50;100.00;65435.88;4996890;28;19936;-75
2021/05/12 11:08:25;;;;;;;10.07;2.10;;;;;;;-145.50;100.00;65435.88;5001363;28;20058;-74
2021/05/12 11:11:22;;;;;;;8.07;1.50;;;;;;;-145.50;100.00;65435.88;4996047;28;20057;-75
2021/05/12 11:14:18;;;;;;;11.88;2.25;;;;;;;-145.50;100.00;65435.88;5008769;28;20090;-74
2021/05/12 11:17:41;;;;;;;6.00;1.40;;;;;;;-145.50;100.00;65435.88;4996262;28;20046;-74
2021/05/12 11:20:35;;;;;;;9.65;2.10;;;;;;;-145.50;100.00;65435.88;4992816;28;20536;-75
2021/05/12 11:23:34;;;;;;;8.02;2.20;;;;;;;-145.50;100.00;65435.88;4992963;28;20096;-74
2021/05/12 11:32:35;;;;;;;4.13;1.27;;;;;;;-145.50;100.00;65435.88;5002011;28;20511;-74
2021/05/12 11:35:26;;;;;;;5.22;1.40;;;;;;;-145.50;100.00;65435.88;4990748;28;20053;-74
2021/05/12 11:38:16;;;;;;;4.63;1.40;;;;;;;-145.50;100.00;65435.88;4999913;28;20077;-74
2021/05/12 11:41:23;;;;;;;10.23;1.77;;;;;;;-145.50;100.00;65435.88;4992638;28;20103;-73
2021/05/12 11:44:19;;;;;;;8.18;1.92;;;;;;;-145.50;100.00;65435.88;5001634;28;20069;-73
2021/05/12 11:47:06;;;;;;;8.45;1.85;;;;;;;-145.50;100.00;65435.88;5002365;28;20056;-74
2021/05/12 11:49:53;;;;;;;6.97;1.90;;;;;;;-145.50;100.00;65435.88;4992913;28;20058;-74
2021/05/12 11:52:27;;;;;;;5.87;2.13;;;;;;;-145.50;100.00;65435.88;4994609;28;20089;-75
2021/05/12 11:55:17;;;;;;;8.00;2.53;;;;;;;-145.50;100.00;65435.88;4991822;28;20062;-74
2021/05/12 11:58:09;;;;;;;8.57;1.80;;;;;;;-145.50;100.00;65435.88;4999253;28;20413;-74
2021/05/12 12:01:04;;;;;;;8.73;2.17;;;;;;;-145.50;100.00;65435.88;4999460;28;20073;-74
2021/05/12 12:04:05;;;;;;;8.85;1.98;;;;;;;-145.50;100.00;65435.88;4995122;28;20065;-74
2021/05/12 12:07:03;;;;;;;9.63;2.10;;;;;;;-145.50;100.00;65435.88;5001072;28;20069;-74
2021/05/12 12:10:00;;;;;;;12.35;2.08;;;;;;;-145.50;100.00;65435.88;4999960;28;20050;-75
2021/05/12 12:12:37;;;;;;;7.63;1.70;;;;;;;-145.50;100.00;65435.88;5002069;28;20147;-77
2021/05/12 12:15:05;;;;;;;10.50;2.05;;;;;;;-145.50;100.00;65435.88;4998493;28;20048;-74
2021/05/12 12:17:52;;;;;;;10.90;2.22;;;;;;;-145.50;100.00;65435.88;4995028;28;20965;-74
2021/05/12 12:20:39;;;;;;;12.07;2.30;;;;;;;-145.50;100.00;65435.88;4988524;28;20053;-75
2021/05/12 12:23:06;;;;;;;10.18;2.38;;;;;;;-145.50;100.00;65435.88;5003701;28;20049;-75
2021/05/12 12:25:45;;;;;;;7.97;2.28;;;;;;;15.64;68.75;100934.72;4992681;28;20054;-75
2021/05/12 12:28:12;;;;;;;10.35;2.08;;;;;;;15.56;100.00;65435.88;5003870;28;20462;-75
2021/05/12 12:30:59;;;;;;;8.07;2.08;;;;;;;-145.50;100.00;65435.88;4992366;28;20061;-75
2021/05/12 12:33:29;;;;;;;8.13;2.17;;;;;;;15.64;68.75;100934.72;4999401;28;20159;-74
2021/05/12 12:36:16;;;;;;;6.40;2.08;;;;;;;15.64;68.75;100934.72;4995357;28;22100;-75
2021/05/12 12:38:51;;;;;;;7.85;2.13;;;;;;;-145.50;100.00;65435.88;4995500;28;20058;-74
2021/05/12 12:41:18;;;;;;;9.25;2.40;;;;;;;-145.50;100.00;65435.88;4996269;28;20108;-74